Terminal Aerodrome Forecast
Issued by NWS Norman, OK

Home | Current Version | Previous Version | Text Only | Print | Product List | Glossary On
Versions: 1 2 3 4 5 6 7 8 9 10 11 12 13 14 15 16
000
FTUS44 KOUN 191132
TAFSPS
TAF
KSPS 191132Z 1912/2012 12007KT 5SM BR SCT008 OVC015
      TEMPO 1912/1915 2SM BR OVC005
     FM191600 15012KT 5SM BR OVC008
     FM192200 15011KT 5SM -SHRA BR OVC015
      TEMPO 1923/2003 2SM TSRA BR OVC008CB
     FM200600 19010KT P6SM SCT015 BKN100=

USA.gov is the U.S. government's official web portal to all federal, state and local government web resources and services.